Flight Track Log - Related Links

Times and Time Zones

All times are in EDT time to prevent confusion due to time zone crossing. See the DAL1042 flight status page for this flight to view local times or setup timezone preferences in your user account.

Time Position Orientation Groundspeed Altitude Reporting Facility
EDT Latitude Longitude Course Direction KTS MPH feet Rate Location/Type
Tue 10:17:01 AM 33.6467 -117.8844 90° East 161 185 1,600  Level Los Angeles Center
Tue 10:18:03 AM 33.6022 -117.8947 191° South 161 185 3,300 1,452 Climbing Los Angeles Center
Tue 10:19:00 AM 33.5029 -117.6229 54° Northeast  Level FlightAware Approximate
Tue 10:19:05 AM 33.5458 -117.8783 166° South 221 254 4,600  Level Los Angeles Center
Tue 10:20:00 AM 33.5600 -117.4845 66° East  Level FlightAware Approximate
Tue 10:20:06 AM 33.5481 -117.7872 88° East 280 322 6,400  Level Los Angeles Center
Tue 10:21:00 AM 33.5833 -117.3350 90° East  Level FlightAware Approximate
Tue 10:21:08 AM 33.5617 -117.6894 80° East 299 344 9,300  Level Los Angeles Center
Tue 10:22:00 AM 33.5834 -117.1799 90° East  Level FlightAware Approximate
Tue 10:22:10 AM 33.5742 -117.5722 83° East 298 343 11,500  Level Los Angeles Center
Tue 10:23:12 AM 33.5839 -117.4600 84° East 333 383 13,600 1,951 Climbing Los Angeles Center
Tue 10:24:13 AM 33.5872 -117.3656 88° East 353 406 15,500 2,098 Climbing Los Angeles Center
Tue 10:25:15 AM 33.5922 -117.2225 88° East 360 414 17,900 2,081 Climbing Los Angeles Center
Tue 10:26:17 AM 33.5967 -117.0958 88° East 377 434 19,800 1,887 Climbing Los Angeles Center
Tue 10:27:19 AM 33.6022 -116.9689 87° East 383 441 21,800 1,839 Climbing Los Angeles Center
Tue 10:28:21 AM 33.6067 -116.8289 88° East 392 451 23,600 1,415 Climbing Los Angeles Center
Tue 10:29:22 AM 33.6111 -116.7222 87° East 398 458 24,700 1,317 Climbing Los Angeles Center
Tue 10:30:24 AM 33.6144 -116.5861 88° East 407 468 26,300 1,645 Climbing Los Angeles Center
Tue 10:31:26 AM 33.6211 -116.3892 88° East 422 486 28,100 1,561 Climbing Los Angeles Center
Tue 10:32:27 AM 33.6261 -116.2461 88° East 426 490 29,500 1,220 Climbing Los Angeles Center
Tue 10:33:29 AM 33.6264 -116.0986 90° East 439 505 30,600 971 Climbing Los Angeles Center
Tue 10:34:43 AM 33.6239 -115.9503 91° East 443 510 31,700 1,147 Climbing Los Angeles Center
Tue 10:35:45 AM 33.6200 -115.7728 91° East 442 509 33,200 1,355 Climbing Los Angeles Center
Tue 10:36:47 AM 33.6169 -115.6233 91° East 447 514 34,500 1,210 Climbing Los Angeles Center
Tue 10:37:49 AM 33.6125 -115.4758 92° East 445 512 35,700 878 Climbing Los Angeles Center
Tue 10:38:50 AM 33.6086 -115.3281 92° East 443 510 36,300 634 Climbing Los Angeles Center
Tue 10:39:52 AM 33.5942 -115.1500 96° East 451 519 37,000 339 Climbing Los Angeles Center
Tue 10:40:54 AM 33.5725 -115.0036 100° East 444 511 37,000  Level Los Angeles Center
Tue 10:41:56 AM 33.5519 -114.8500 99° East 467 537 37,000  Level Los Angeles Center
Tue 10:43:10 AM 33.5286 -114.6686 99° East 463 533 37,000  Level Los Angeles Center
Tue 10:44:12 AM 33.5039 -114.5189 101° East 461 531 37,000  Level Los Angeles Center
Tue 10:45:14 AM 33.4822 -114.3714 100° East 456 525 37,000  Level Los Angeles Center
Tue 10:46:16 AM 33.4542 -114.1914 101° East 457 526 37,000  Level Los Angeles Center
Tue 10:47:18 AM 33.4322 -114.0444 100° East 453 521 37,000  Level Los Angeles Center
Tue 10:48:20 AM 33.4083 -113.8958 101° East 455 524 37,000 49 Level Los Angeles Center
Tue 10:49:21 AM 33.3847 -113.7461 101° East 458 527 37,100 341 Climbing Los Angeles Center
Tue 10:50:23 AM 33.3658 -113.6275 101° East 455 524 37,700 435 Climbing Los Angeles Center
Tue 10:51:25 AM 33.3375 -113.4483 101° East 457 526 38,000 145 Climbing Los Angeles Center
Tue 10:52:27 AM 33.3106 -113.2764 101° East 460 529 38,000  Level Los Angeles Center
Tue 10:53:41 AM 33.2814 -113.0986 101° East 455 524 38,000  Level Los Angeles Center
Tue 10:54:51 AM 33.2514 -112.9183 101° East 456 525 38,000  Level Albuquerque Center
Tue 10:55:53 AM 33.2267 -112.7706 101° East 455 524 38,000  Level Albuquerque Center
Tue 10:56:55 AM 33.2017 -112.6208 101° East 456 525 38,000  Level Albuquerque Center
Tue 10:57:57 AM 33.1781 -112.4861 102° East 457 526 38,000  Level Albuquerque Center
Tue 10:58:59 AM 33.1472 -112.3067 102° East 464 534 38,000  Level Albuquerque Center
Tue 11:00:01 AM 33.1206 -112.1539 102° East 471 542 38,000  Level Albuquerque Center
Tue 11:01:03 AM 33.0944 -112.0003 101° East 475 547 38,000  Level Albuquerque Center
Tue 11:02:05 AM 33.0681 -111.8469 102° East 475 547 38,000  Level Albuquerque Center
Tue 11:03:07 AM 33.0422 -111.6964 102° East 468 539 38,000  Level Albuquerque Center
Tue 11:04:09 AM 33.0100 -111.5164 102° East 466 536 38,000  Level Albuquerque Center
Tue 11:05:11 AM 32.9831 -111.3653 102° East 469 540 38,000  Level Albuquerque Center
Tue 11:06:13 AM 32.9558 -111.2128 102° East 473 544 38,000  Level Albuquerque Center
Tue 11:07:15 AM 32.9283 -111.0603 102° East 473 544 38,000  Level Albuquerque Center
Tue 11:08:17 AM 32.8997 -110.9083 103° East 473 544 38,000  Level Albuquerque Center
Tue 11:09:19 AM 32.8711 -110.7558 103° East 474 545 38,000  Level Albuquerque Center
Tue 11:10:21 AM 32.8372 -110.5714 102° East 477 549 38,000  Level Albuquerque Center
Tue 11:11:23 AM 32.8083 -110.4172 103° East 479 551 38,000  Level Albuquerque Center
Tue 11:12:25 AM 32.7794 -110.2644 103° East 478 550 38,000  Level Albuquerque Center
Tue 11:13:27 AM 32.7497 -110.1103 103° East 480 552 38,000  Level Albuquerque Center
Tue 11:14:29 AM 32.7211 -109.9511 102° East 482 555 38,000  Level Albuquerque Center
Tue 11:15:31 AM 32.6928 -109.7978 102° East 478 550 38,000  Level Albuquerque Center
Tue 11:16:33 AM 32.6564 -109.6136 103° East 478 550 38,000  Level Albuquerque Center
Tue 11:17:35 AM 32.6267 -109.4597 103° East 480 552 38,000 -242 Level Albuquerque Center
Tue 11:18:37 AM 32.5956 -109.3058 103° East 479 551 37,500 -484 Descending Albuquerque Center
Tue 11:19:39 AM 32.5644 -109.1522 103° East 480 552 37,000 -242 Descending Albuquerque Center
Tue 11:20:41 AM 32.5331 -108.9953 103° East 487 560 37,000  Level Albuquerque Center
Tue 11:21:43 AM 32.5011 -108.8400 104° East 488 562 37,000  Level Albuquerque Center
Tue 11:22:45 AM 32.4589 -108.6517 105° East 494 568 37,000  Level Albuquerque Center
Tue 11:23:47 AM 32.4283 -108.4967 103° East 490 564 37,000  Level Albuquerque Center
Tue 11:24:49 AM 32.3972 -108.3428 103° East 484 557 37,000  Level Albuquerque Center
Tue 11:25:51 AM 32.3653 -108.1869 104° East 489 563 37,000  Level Albuquerque Center
Tue 11:26:53 AM 32.3328 -108.0319 104° East 489 563 37,000  Level Albuquerque Center
Tue 11:27:55 AM 32.2997 -107.8775 104° East 488 562 37,000  Level Albuquerque Center
Tue 11:28:57 AM 32.2614 -107.6903 104° East 491 565 37,000  Level Albuquerque Center
Tue 11:29:59 AM 32.2283 -107.5353 104° East 492 566 37,000  Level Albuquerque Center
Tue 11:31:01 AM 32.1919 -107.3683 104° East 489 563 37,000  Level Albuquerque Center
Tue 11:32:03 AM 32.1625 -107.2283 104° East 489 563 37,000  Level Albuquerque Center
Tue 11:33:05 AM 32.1233 -107.0433 104° East 491 565 37,000  Level Albuquerque Center
Tue 11:34:07 AM 32.0900 -106.8886 104° East 491 565 37,000  Level Albuquerque Center
Tue 11:35:09 AM 32.0564 -106.7342 104° East 491 565 37,000  Level Albuquerque Center
Tue 11:36:11 AM 32.0219 -106.5794 105° East 491 565 37,000  Level Albuquerque Center
Tue 11:37:13 AM 31.9869 -106.4247 105° East 492 566 37,000  Level Albuquerque Center
Tue 11:38:15 AM 31.9553 -106.2686 103° East 492 566 37,000  Level Albuquerque Center
Tue 11:39:17 AM 31.9511 -106.0794 91° East 483 556 37,000  Level Albuquerque Center
Tue 11:40:19 AM 31.9439 -105.9286 93° East 484 557 37,000  Level Albuquerque Center
Tue 11:41:21 AM 31.9406 -105.7672 91° East 490 564 37,000  Level Albuquerque Center
Tue 11:42:23 AM 31.9392 -105.6031 91° East 495 570 37,000  Level Albuquerque Center
Tue 11:43:24 AM 31.9361 -105.4406 91° East 495 570 37,000  Level Albuquerque Center
Tue 11:44:26 AM 31.9317 -105.2500 92° East 488 562 37,000  Level Albuquerque Center
Tue 11:45:28 AM 31.9289 -105.0881 91° East 491 565 37,000  Level Albuquerque Center
Tue 11:46:30 AM 31.9258 -104.9275 91° East 491 565 37,000  Level Albuquerque Center
Tue 11:47:32 AM 31.9231 -104.7661 91° East 492 566 37,000  Level Albuquerque Center
Tue 11:48:34 AM 31.9175 -104.6017 92° East 498 573 37,000  Level Albuquerque Center
Tue 11:49:35 AM 31.9139 -104.4397 91° East 497 572 37,000  Level Albuquerque Center
Tue 11:50:37 AM 31.9083 -104.2775 92° East 496 571 37,000  Level Albuquerque Center
Tue 11:51:39 AM 31.9028 -104.0814 92° East 499 574 37,000  Level Albuquerque Center
Tue 11:52:41 AM 31.8978 -103.9233 92° East 501 577 37,000  Level Albuquerque Center
Tue 11:53:43 AM 31.8933 -103.7594 92° East 504 580 37,000  Level Albuquerque Center
Tue 11:54:45 AM 31.8867 -103.5967 93° East 502 578 37,000  Level Albuquerque Center
Tue 11:55:46 AM 31.8800 -103.4339 93° East 500 575 37,000  Level Albuquerque Center
Tue 11:56:48 AM 31.8731 -103.2389 92° East 501 577 37,000  Level Albuquerque Center
Tue 11:57:50 AM 31.8708 -103.0775 91° East 498 573 37,000  Level Albuquerque Center
Tue 11:58:52 AM 31.8703 -102.9136 90° East 497 572 37,000  Level Albuquerque Center
Tue 11:59:54 AM 31.8692 -102.7467 90° East 507 583 37,000  Level Albuquerque Center
Tue 12:00:56 PM 31.8650 -102.5808 92° East 507 583 37,000  Level Albuquerque Center
Tue 12:01:35 PM 31.8650 -102.4764 90° East 500 575 37,000  Level Fort Worth Center
Tue 12:02:35 PM 31.8631 -102.3150 91° East 495 570 37,000  Level Fort Worth Center
Tue 12:03:34 PM 31.8608 -102.1533 91° East 495 570 37,000  Level Fort Worth Center
Tue 12:04:34 PM 31.8564 -101.9894 92° East 500 575 37,000  Level Fort Worth Center
Tue 12:05:35 PM 31.8561 -101.8206 90° East 500 575 37,000  Level Fort Worth Center
Tue 12:06:34 PM 31.8825 -101.6678 78° East 487 560 37,000  Level Fort Worth Center
Tue 12:07:35 PM 31.9106 -101.5125 78° East 482 555 37,000  Level Fort Worth Center
Tue 12:08:35 PM 31.9406 -101.3547 77° East 487 560 37,000  Level Fort Worth Center
Tue 12:09:34 PM 31.9725 -101.1994 76° East 487 560 37,000  Level Fort Worth Center
Tue 12:10:34 PM 32.0042 -101.0439 76° East 487 560 37,000  Level Fort Worth Center
Tue 12:11:35 PM 32.0294 -100.8906 79° East 487 560 37,000  Level Fort Worth Center
Tue 12:12:34 PM 32.0608 -100.7347 77° East 482 555 37,000  Level Fort Worth Center
Tue 12:13:34 PM 32.0900 -100.5767 78° East 487 560 37,000  Level Fort Worth Center
Tue 12:14:35 PM 32.1208 -100.4183 77° East 487 560 37,000  Level Fort Worth Center
Tue 12:15:34 PM 32.1517 -100.2597 77° East 487 560 37,000  Level Fort Worth Center
Tue 12:16:34 PM 32.1803 -100.1036 78° East 487 560 37,000  Level Fort Worth Center
Tue 12:17:35 PM 32.2003 -99.9397 82° East 494 568 37,000  Level Fort Worth Center
Tue 12:18:34 PM 32.2139 -99.7756 84° East 500 575 37,000  Level Fort Worth Center
Tue 12:19:34 PM 32.2211 -99.6111 87° East 500 575 37,000  Level Fort Worth Center
Tue 12:20:35 PM 32.2303 -99.4469 86° East 500 575 37,000  Level Fort Worth Center
Tue 12:21:34 PM 32.2389 -99.2825 86° East 495 570 37,000  Level Fort Worth Center
Tue 12:22:34 PM 32.2497 -99.1206 85° East 495 570 37,000  Level Fort Worth Center
Tue 12:23:34 PM 32.2603 -98.9561 86° East 495 570 37,000  Level Fort Worth Center
Tue 12:24:34 PM 32.2661 -98.7942 88° East 495 570 37,000  Level Fort Worth Center
Tue 12:25:34 PM 32.2786 -98.6175 85° East 490 564 37,000  Level Fort Worth Center
Tue 12:26:34 PM 32.2883 -98.4531 86° East 495 570 37,000  Level Fort Worth Center
Tue 12:27:34 PM 32.2939 -98.2883 88° East 495 570 37,000  Level Fort Worth Center
Tue 12:28:34 PM 32.3011 -98.1236 87° East 495 570 37,000  Level Fort Worth Center
Tue 12:29:35 PM 32.3103 -97.9614 86° East 495 570 37,000  Level Fort Worth Center
Tue 12:30:34 PM 32.3150 -97.7969 88° East 495 570 37,000  Level Fort Worth Center
Tue 12:31:34 PM 32.3217 -97.6347 87° East 495 570 37,000  Level Fort Worth Center
Tue 12:32:35 PM 32.3261 -97.4725 88° East 495 570 37,000  Level Fort Worth Center
Tue 12:33:34 PM 32.3344 -97.3103 86° East 495 570 37,000  Level Fort Worth Center
Tue 12:34:34 PM 32.3403 -97.1453 88° East 495 570 37,000  Level Fort Worth Center
Tue 12:35:35 PM 32.3461 -96.9806 88° East 495 570 37,000  Level Fort Worth Center
Tue 12:36:34 PM 32.3519 -96.8183 88° East 495 570 37,000  Level Fort Worth Center
Tue 12:37:34 PM 32.3572 -96.6533 88° East 495 570 37,000  Level Fort Worth Center
Tue 12:38:35 PM 32.3644 -96.4911 87° East 495 570 37,000  Level Fort Worth Center
Tue 12:39:34 PM 32.3694 -96.3286 88° East 495 570 37,000  Level Fort Worth Center
Tue 12:40:34 PM 32.3742 -96.1686 88° East 495 570 37,000  Level Fort Worth Center
Tue 12:41:34 PM 32.3767 -96.0039 89° East 495 570 37,000  Level Fort Worth Center
Tue 12:42:34 PM 32.3831 -95.8389 87° East 495 570 37,000  Level Fort Worth Center
Tue 12:43:34 PM 32.3875 -95.6889 88° East 504 580 37,000  Level Fort Worth Center
Tue 12:44:35 PM 32.3892 -95.5264 89° East 499 574 37,000  Level Fort Worth Center
Tue 12:45:34 PM 32.3950 -95.3639 88° East 499 574 37,000  Level Fort Worth Center
Tue 12:46:34 PM 32.3986 -95.1989 88° East 499 574 37,000  Level Fort Worth Center
Tue 12:47:35 PM 32.4019 -95.0389 89° East 499 574 37,000  Level Fort Worth Center
Tue 12:48:34 PM 32.4028 -94.8742 90° East 499 574 37,000  Level Fort Worth Center
Tue 12:49:34 PM 32.4056 -94.7067 89° East 499 574 37,000  Level Fort Worth Center
Tue 12:50:35 PM 32.4103 -94.5417 88° East 499 574 37,000  Level Fort Worth Center
Tue 12:51:34 PM 32.4128 -94.3767 89° East 499 574 37,000  Level Fort Worth Center
Tue 12:52:34 PM 32.4169 -94.2069 88° East 499 574 37,000  Level Fort Worth Center
Tue 12:53:34 PM 32.4167 -94.0394 90° East 499 574 37,000  Level Fort Worth Center
Tue 12:54:34 PM 32.4203 -93.8719 88° East 499 574 37,000  Level Fort Worth Center
Tue 12:55:34 PM 32.4239 -93.7044 88° East 499 574 37,000  Level Fort Worth Center
Tue 12:56:35 PM 32.4250 -93.5372 90° East 504 580 37,000  Level Fort Worth Center
Tue 12:57:34 PM 32.4275 -93.3500 89° East 504 580 37,000  Level Fort Worth Center
Tue 12:58:34 PM 32.4303 -93.1800 89° East 509 586 37,000  Level Fort Worth Center
Tue 12:59:34 PM 32.4308 -93.0103 90° East 514 592 37,000  Level Fort Worth Center
Tue 01:00:34 PM 32.4331 -92.8428 89° East 514 592 37,000  Level Fort Worth Center
Tue 01:01:34 PM 32.4353 -92.6728 89° East 514 592 37,000  Level Fort Worth Center
Tue 01:02:16 PM 32.4317 -92.5939 93° East 515 593 37,000  Level Houston Center
Tue 01:03:18 PM 32.4325 -92.3914 90° East 515 593 37,000  Level Houston Center
Tue 01:04:20 PM 32.4317 -92.2197 90° East 518 596 37,000  Level Houston Center
Tue 01:05:22 PM 32.4311 -92.0481 90° East 522 601 37,000  Level Houston Center
Tue 01:06:24 PM 32.4303 -91.8767 90° East 517 595 37,000  Level Houston Center
Tue 01:07:02 PM 32.4281 -91.7675 91° East 512 589 37,000  Level Memphis Center
Tue 01:08:02 PM 32.4300 -91.5978 89° East 517 595 37,000  Level Memphis Center
Tue 01:09:02 PM 32.4253 -91.4281 92° East 512 589 37,000  Level Memphis Center
Tue 01:10:02 PM 32.4225 -91.2556 91° East 518 596 37,000  Level Memphis Center
Tue 01:11:02 PM 32.4236 -91.0858 90° East 518 596 37,000  Level Memphis Center
Tue 01:12:02 PM 32.4203 -90.9011 91° East 511 588 37,000  Level Memphis Center
Tue 01:13:02 PM 32.4167 -90.7339 91° East 511 588 37,000  Level Memphis Center
Tue 01:14:02 PM 32.4169 -90.5664 90° East 511 588 37,000  Level Memphis Center
Tue 01:15:02 PM 32.4131 -90.3967 92° East 516 594 37,000  Level Memphis Center
Tue 01:16:02 PM 32.4108 -90.2269 91° East 516 594 37,000  Level Memphis Center
Tue 01:17:02 PM 32.4086 -90.0619 91° East 511 588 37,000  Level Memphis Center
Tue 01:18:02 PM 32.4039 -89.8947 92° East 511 588 37,000  Level Memphis Center
Tue 01:19:02 PM 32.4011 -89.7275 91° East 511 588 37,000  Level Memphis Center
Tue 01:20:02 PM 32.3981 -89.5625 91° East 506 582 37,000  Level Memphis Center
Tue 01:21:02 PM 32.3947 -89.3953 91° East 506 582 37,000  Level Memphis Center
Tue 01:22:02 PM 32.3914 -89.2453 91° East 506 582 37,000  Level Memphis Center
Tue 01:23:02 PM 32.3878 -89.0806 91° East 501 577 37,000  Level Memphis Center
Tue 01:24:02 PM 32.3817 -88.9108 92° East 501 577 37,000  Level Memphis Center
Tue 01:25:02 PM 32.3858 -88.7483 88° East 495 570 37,000  Level Memphis Center
Tue 01:27:28 PM 32.4358 -88.3333 82° East 513 590 37,000  Level Atlanta Center
Tue 01:28:28 PM 32.4561 -88.1644 82° East 513 590 37,000 -100 Level Atlanta Center
Tue 01:29:28 PM 32.4714 -88.0175 83° East 513 590 36,800 -900 Descending Atlanta Center
Tue 01:30:28 PM 32.4919 -87.8286 83° East 518 596 35,200 -1,350 Descending Atlanta Center
Tue 01:31:28 PM 32.5117 -87.6572 82° East 518 596 34,100 -950 Descending Atlanta Center
Tue 01:32:28 PM 32.5289 -87.4928 83° East 518 596 33,300 -700 Descending Atlanta Center
Tue 01:33:28 PM 32.5461 -87.3258 83° East 518 596 32,700 -500 Descending Atlanta Center
Tue 01:34:28 PM 32.5650 -87.1614 82° East 513 590 32,300 -500 Descending Atlanta Center
Tue 01:35:28 PM 32.5814 -87.0019 83° East 500 575 31,700 -550 Descending Atlanta Center
Tue 01:36:28 PM 32.5975 -86.8447 83° East 494 568 31,200 -500 Descending Atlanta Center
Tue 01:37:28 PM 32.6136 -86.6847 83° East 478 550 30,700 -1,000 Descending Atlanta Center
Tue 01:38:28 PM 32.6483 -86.5281 75° East 484 557 29,200 -1,150 Descending Atlanta Center
Tue 01:39:28 PM 32.6950 -86.3739 70° East 484 557 28,400 -700 Descending Atlanta Center
Tue 01:40:28 PM 32.7439 -86.2194 69° East 492 566 27,800 -800 Descending Atlanta Center
Tue 01:41:28 PM 32.7836 -86.0847 71° East 492 566 26,800 -1,700 Descending Atlanta Center
Tue 01:42:28 PM 32.8300 -85.9350 70° East 487 560 24,400 -1,400 Descending Atlanta Center
Tue 01:43:28 PM 32.8739 -85.7875 70° East 477 549 24,000 -250 Descending Atlanta Center
Tue 01:44:28 PM 32.9197 -85.6447 69° East 466 536 23,900 -867 Descending Atlanta Center
Tue 01:46:28 PM 32.9958 -85.3811 71° East 422 486 21,400 -1,433 Descending Atlanta Center
Tue 01:47:28 PM 33.0222 -85.2553 76° East 403 464 19,600 -2,300 Descending Atlanta Center
Tue 01:48:28 PM 33.0256 -85.1264 88° East 367 422 16,800 -2,750 Descending Atlanta Center
Tue 01:49:28 PM 33.0783 -85.0403 54° Northeast 320 368 14,100 -2,350 Descending Atlanta Center
Tue 01:50:28 PM 33.1725 -85.0267 North 280 322 12,100 -1,600 Descending Atlanta Center
Tue 01:51:28 PM 33.2419 -84.9603 39° Northeast 304 350 10,900 -1,550 Descending Atlanta Center
Tue 01:52:28 PM 33.3028 -84.9039 38° Northeast 314 361 9,000 -2,050 Descending Atlanta Center
Tue 01:53:28 PM 33.3639 -84.8347 43° Northeast 313 360 6,800 -2,000 Descending Atlanta Center
Tue 01:54:28 PM 33.4308 -84.7806 34° Northeast 292 336 5,000 -1,400 Descending Atlanta Center
Tue 01:55:28 PM 33.4958 -84.7314 32° Northeast 280 322 4,000 -900 Descending Atlanta Center
Tue 01:56:28 PM 33.5547 -84.6869 32° Northeast 257 296 3,200 -500 Descending Atlanta Center
Tue 01:57:28 PM 33.5967 -84.6422 42° Northeast 219 252 3,000 -200 Descending Atlanta Center

Login

Don't have an account? Register now (free) for customized features, flight alerts, and more!